Time;durP1;ratioP1;P1;durP2;ratioP2;P2;SDS_P1;SDS_P2;PMS_P1;PMS_P2;Temp;Humidity;BMP_temperature;BMP_pressure;BME280_temperature;BME280_humidity;BME280_pressure;Samples;Min_cycle;Max_cycle;Signal;HPM_P1;HPM_P2
2023/09/08 00:00:28;;;;;;;4.10;3.28;;;;;;;25.27;41.08;98904.56;2095165;28;20451;-50
2023/09/08 00:01:28;;;;;;;7.65;3.65;;;;;;;25.25;41.41;98915.69;2095103;28;20044;-52
2023/09/08 00:02:30;;;;;;;3.08;2.88;;;;;;;25.24;41.58;98914.03;2092650;28;20183;-50
2023/09/08 00:03:31;;;;;;;5.00;3.08;;;;;;;25.28;41.14;98919.81;2094039;28;20048;-47
2023/09/08 00:04:33;;;;;;;4.05;3.33;;;;;;;25.25;41.11;98914.84;2095664;28;20119;-50
2023/09/08 00:05:34;;;;;;;3.65;2.85;;;;;;;25.29;41.28;98916.00;2094534;28;20131;-53
2023/09/08 00:06:37;;;;;;;3.83;3.40;;;;;;;25.31;41.49;98919.31;2094733;28;20410;-47
2023/09/08 00:07:38;;;;;;;3.25;2.47;;;;;;;25.32;41.31;98921.78;2095929;28;20040;-48
2023/09/08 00:08:40;;;;;;;6.22;3.08;;;;;;;25.29;41.29;98927.69;2096120;28;20501;-49
2023/09/08 00:09:41;;;;;;;3.65;2.80;;;;;;;25.31;41.19;98930.19;2094235;28;20049;-48
2023/09/08 00:10:42;;;;;;;3.65;2.95;;;;;;;25.33;41.51;98928.88;2094826;28;20386;-49
2023/09/08 00:11:44;;;;;;;6.43;3.33;;;;;;;25.39;40.99;98927.09;2095707;28;20110;-48
2023/09/08 00:12:45;;;;;;;4.93;2.80;;;;;;;25.34;41.12;98922.38;2090031;28;20047;-52
2023/09/08 00:13:46;;;;;;;5.30;2.97;;;;;;;25.36;41.24;98922.16;2093462;28;20052;-51
2023/09/08 00:14:47;;;;;;;3.83;3.05;;;;;;;25.34;41.04;98929.69;2094580;28;20495;-47
2023/09/08 00:15:49;;;;;;;7.97;3.55;;;;;;;25.35;41.38;98924.03;2095255;28;20054;-48
2023/09/08 00:16:54;;;;;;;4.32;2.75;;;;;;;25.42;41.03;98923.88;2094237;28;20044;-48
2023/09/08 00:17:56;;;;;;;4.63;3.47;;;;;;;25.46;41.13;98924.22;2094854;28;20105;-50
2023/09/08 00:18:58;;;;;;;4.43;3.10;;;;;;;25.44;40.75;98919.06;2094886;28;20048;-51
2023/09/08 00:20:00;;;;;;;5.43;3.30;;;;;;;25.55;40.63;98922.78;2094813;28;20055;-51
2023/09/08 00:21:01;;;;;;;4.65;3.00;;;;;;;25.53;40.84;98923.03;2090053;28;20041;-49
2023/09/08 00:22:05;;;;;;;3.67;3.35;;;;;;;25.57;40.38;98923.34;2083440;28;20056;-52
2023/09/08 00:23:06;;;;;;;3.72;3.28;;;;;;;25.52;40.99;98920.53;2087719;28;20044;-47
2023/09/08 00:24:08;;;;;;;7.13;2.90;;;;;;;25.54;40.36;98916.50;2083880;28;20102;-50
2023/09/08 00:25:09;;;;;;;4.38;2.78;;;;;;;25.58;40.19;98920.41;2078391;28;20064;-49
2023/09/08 00:26:11;;;;;;;3.15;2.85;;;;;;;25.64;40.00;98924.03;2086151;28;20072;-48
2023/09/08 00:27:12;;;;;;;3.28;2.95;;;;;;;25.66;39.95;98923.78;2096456;28;20055;-49
2023/09/08 00:28:14;;;;;;;4.43;3.40;;;;;;;25.58;40.55;98919.59;2094807;28;20782;-48
2023/09/08 00:29:14;;;;;;;3.80;2.83;;;;;;;25.59;40.14;98919.31;2095753;28;20051;-50
2023/09/08 00:30:16;;;;;;;4.97;3.40;;;;;;;25.58;40.02;98931.28;2092033;28;20044;-51
2023/09/08 00:31:17;;;;;;;4.00;2.88;;;;;;;25.59;40.35;98922.03;2095234;28;20051;-47
2023/09/08 00:32:19;;;;;;;4.45;4.05;;;;;;;25.62;40.74;98926.16;2095238;28;20143;-50
2023/09/08 00:33:22;;;;;;;4.32;2.83;;;;;;;25.63;39.90;98916.94;2095552;28;20044;-49
2023/09/08 00:34:24;;;;;;;8.68;2.90;;;;;;;25.61;40.47;98919.09;2093943;28;20051;-50
2023/09/08 00:35:24;;;;;;;3.45;3.08;;;;;;;25.58;40.14;98922.31;2094951;28;21182;-50
2023/09/08 00:36:26;;;;;;;5.18;3.30;;;;;;;25.60;40.26;98922.88;2094036;28;20139;-49
2023/09/08 00:37:29;;;;;;;8.27;3.70;;;;;;;25.50;40.58;98928.13;2095243;28;20059;-48
2023/09/08 00:38:31;;;;;;;4.05;3.05;;;;;;;25.46;40.46;98922.31;2094741;28;20122;-49
2023/09/08 00:39:32;;;;;;;5.38;3.03;;;;;;;25.44;41.08;98927.19;2095421;28;20643;-47
2023/09/08 00:40:33;;;;;;;4.40;3.03;;;;;;;25.47;40.65;98926.72;2095082;28;20826;-47
2023/09/08 00:41:34;;;;;;;3.15;2.85;;;;;;;25.52;40.83;98920.53;2095147;28;20059;-48
2023/09/08 00:42:36;;;;;;;3.13;2.83;;;;;;;25.53;40.21;98922.19;2095178;28;20044;-47
2023/09/08 00:43:37;;;;;;;5.05;3.15;;;;;;;25.55;40.26;98920.06;2092745;28;20640;-47
2023/09/08 00:44:39;;;;;;;3.95;2.95;;;;;;;25.44;40.67;98924.47;2095157;28;20044;-48
2023/09/08 00:45:42;;;;;;;3.92;3.50;;;;;;;25.40;41.20;98913.25;2096134;28;20083;-47
2023/09/08 00:46:44;;;;;;;3.38;3.08;;;;;;;25.37;40.86;98918.34;2092880;28;20067;-49
2023/09/08 00:47:45;;;;;;;3.08;2.85;;;;;;;25.35;41.23;98912.34;2094918;28;20390;-50
2023/09/08 00:48:47;;;;;;;4.95;3.65;;;;;;;25.34;41.16;98919.66;2094679;28;20083;-49
2023/09/08 00:49:49;;;;;;;3.78;2.90;;;;;;;25.33;41.33;98919.91;2095676;28;20055;-50
2023/09/08 00:50:51;;;;;;;8.27;3.20;;;;;;;25.32;41.29;98920.97;2095386;28;20052;-47
2023/09/08 00:51:52;;;;;;;4.22;3.83;;;;;;;25.37;40.68;98918.34;2095788;28;20048;-47
2023/09/08 00:52:55;;;;;;;4.90;3.47;;;;;;;25.35;40.87;98915.03;2094172;28;20139;-50
2023/09/08 00:53:56;;;;;;;3.03;2.72;;;;;;;25.34;41.24;98919.66;2091451;28;20477;-48
2023/09/08 00:54:58;;;;;;;3.28;2.85;;;;;;;25.35;41.20;98920.47;2095906;28;21812;-48
2023/09/08 00:56:00;;;;;;;3.70;3.30;;;;;;;25.32;40.91;98920.97;2087927;28;20436;-51
2023/09/08 00:57:03;;;;;;;2.83;2.63;;;;;;;25.39;41.06;98921.66;2087123;28;20779;-49
2023/09/08 00:58:04;;;;;;;3.22;2.92;;;;;;;25.42;41.14;98926.59;2087189;28;20124;-47
2023/09/08 00:59:06;;;;;;;4.13;3.38;;;;;;;25.44;41.05;98923.66;2085926;28;20064;-47
2023/09/08 01:00:09;;;;;;;4.35;2.92;;;;;;;25.39;40.68;98927.09;2084424;28;20671;-47
2023/09/08 01:01:11;;;;;;;3.30;3.00;;;;;;;25.36;40.79;98919.44;2084646;28;20049;-46
2023/09/08 01:02:12;;;;;;;4.00;3.38;;;;;;;25.36;41.08;98922.16;2085628;28;20596;-48
2023/09/08 01:03:14;;;;;;;3.78;3.17;;;;;;;25.33;41.29;98922.63;2085773;28;20699;-47
2023/09/08 01:04:14;;;;;;;5.43;2.83;;;;;;;25.36;41.43;98914.00;2084443;28;20522;-49
2023/09/08 01:05:17;;;;;;;3.58;2.85;;;;;;;25.36;40.85;98922.97;2084278;28;20118;-49
2023/09/08 01:06:18;;;;;;;4.40;3.83;;;;;;;25.34;40.76;98916.94;2084298;28;20049;-52
2023/09/08 01:07:21;;;;;;;3.35;3.05;;;;;;;25.34;40.76;98921.56;2085241;28;20049;-48
2023/09/08 01:08:25;;;;;;;5.80;3.13;;;;;;;25.34;41.01;98914.22;2084828;28;20045;-50
2023/09/08 01:09:27;;;;;;;3.10;2.90;;;;;;;25.32;40.83;98921.78;2091789;28;20055;-49
2023/09/08 01:10:29;;;;;;;4.28;3.53;;;;;;;25.34;40.96;98918.84;2096253;28;20076;-48
2023/09/08 01:11:31;;;;;;;5.97;3.50;;;;;;;25.32;41.19;98918.25;2094219;28;20044;-49
2023/09/08 01:12:31;;;;;;;3.95;2.75;;;;;;;25.31;41.34;98914.72;2093760;28;20051;-51
2023/09/08 01:13:33;;;;;;;3.75;2.88;;;;;;;25.31;41.33;98919.31;2089203;28;20132;-50
2023/09/08 01:14:34;;;;;;;5.72;3.10;;;;;;;25.34;40.86;98913.41;2082458;28;20041;-48
2023/09/08 01:15:36;;;;;;;8.60;2.60;;;;;;;25.31;40.80;98914.72;2083838;28;20041;-50
2023/09/08 01:16:37;;;;;;;6.93;3.38;;;;;;;25.29;41.24;98907.88;2094605;28;20056;-47
2023/09/08 01:17:38;;;;;;;4.40;3.42;;;;;;;25.28;41.55;98914.38;2094631;28;20047;-50
2023/09/08 01:18:40;;;;;;;5.13;3.00;;;;;;;25.29;41.19;98911.41;2084901;28;20624;-48
2023/09/08 01:19:43;;;;;;;3.70;3.25;;;;;;;25.34;41.37;98911.50;2086103;28;20052;-47
2023/09/08 01:21:10;;;;;;;4.00;2.90;;;;;;;25.29;41.00;98910.59;2082792;28;20656;-50
2023/09/08 01:23:05;;;;;;;3.10;2.78;;;;;;;25.27;41.33;98915.41;2080660;28;20542;-47
2023/09/08 01:24:27;;;;;;;4.05;3.33;;;;;;;25.29;40.86;98910.59;2065296;28;20050;-51
2023/09/08 01:25:32;;;;;;;5.18;3.03;;;;;;;25.40;41.02;98913.25;2060316;28;20985;-49
2023/09/08 01:26:37;;;;;;;3.35;2.78;;;;;;;25.32;41.16;98910.91;2059672;28;20064;-48
2023/09/08 01:27:41;;;;;;;7.40;2.88;;;;;;;25.34;41.26;98905.25;2058428;28;20064;-48
2023/09/08 01:28:45;;;;;;;6.43;2.70;;;;;;;25.33;40.94;98911.78;2058129;28;20440;-50
2023/09/08 01:29:48;;;;;;;3.58;3.05;;;;;;;25.38;41.17;98909.13;2059236;28;20128;-50
2023/09/08 01:30:50;;;;;;;4.00;3.60;;;;;;;25.29;40.83;98911.41;2060157;28;20142;-51
2023/09/08 01:31:52;;;;;;;4.45;2.70;;;;;;;25.36;40.67;98911.28;2058754;28;20057;-50
2023/09/08 01:32:54;;;;;;;3.13;2.80;;;;;;;25.41;40.80;98909.50;2058022;28;20053;-51
2023/09/08 01:33:56;;;;;;;5.13;2.25;;;;;;;25.43;40.60;98911.94;2058478;28;20141;-50
2023/09/08 01:34:59;;;;;;;3.80;2.95;;;;;;;25.50;40.59;98907.22;2059433;28;20049;-53
2023/09/08 01:36:01;;;;;;;9.48;3.30;;;;;;;25.50;40.94;98915.34;2059891;28;20124;-48
2023/09/08 01:37:04;;;;;;;3.58;3.28;;;;;;;25.52;40.98;98915.94;2060970;28;20049;-47
2023/09/08 01:38:06;;;;;;;3.30;3.00;;;;;;;25.50;40.98;98912.66;2070751;28;20049;-47
2023/09/08 01:39:07;;;;;;;3.38;2.85;;;;;;;25.50;41.05;98917.25;2065897;28;20719;-49
2023/09/08 01:40:10;;;;;;;5.53;2.90;;;;;;;25.53;40.90;98914.88;2068480;28;20051;-47
2023/09/08 01:41:12;;;;;;;6.13;3.10;;;;;;;25.57;40.95;98907.88;2067999;28;20732;-49
2023/09/08 01:42:14;;;;;;;7.25;2.97;;;;;;;25.55;40.92;98915.47;2065852;28;20099;-48
2023/09/08 01:43:15;;;;;;;3.30;2.72;;;;;;;25.56;40.58;98917.09;2066389;28;20063;-53
2023/09/08 01:44:16;;;;;;;4.40;3.00;;;;;;;25.56;40.57;98916.28;2068960;28;20988;-53
2023/09/08 01:45:17;;;;;;;3.00;2.58;;;;;;;25.56;41.15;98917.09;2067838;28;20061;-50
2023/09/08 01:46:19;;;;;;;5.95;2.90;;;;;;;25.50;40.68;98918.06;2069580;28;20084;-49
2023/09/08 01:47:20;;;;;;;5.28;3.25;;;;;;;25.43;40.86;98914.66;2068002;28;20045;-52
2023/09/08 01:48:22;;;;;;;3.40;2.88;;;;;;;25.50;40.98;98918.06;2066760;28;20148;-52
2023/09/08 01:49:23;;;;;;;3.50;2.90;;;;;;;25.54;41.21;98913.78;2069650;28;20053;-47
2023/09/08 01:50:25;;;;;;;4.13;2.75;;;;;;;25.48;41.31;98903.09;2066732;28;20627;-50
2023/09/08 01:51:25;;;;;;;3.25;2.95;;;;;;;25.51;41.37;98908.84;2064073;28;20547;-51
2023/09/08 01:52:28;;;;;;;8.82;3.30;;;;;;;25.51;41.27;98903.41;2068526;28;20059;-47
2023/09/08 01:53:29;;;;;;;7.32;2.97;;;;;;;25.52;41.22;98901.53;2062536;28;20045;-50
2023/09/08 01:54:30;;;;;;;3.95;3.17;;;;;;;25.51;41.44;98900.69;2068285;28;20503;-50
2023/09/08 01:55:31;;;;;;;4.00;2.97;;;;;;;25.54;41.33;98902.09;2074529;28;20097;-49
2023/09/08 01:56:34;;;;;;;3.85;2.55;;;;;;;25.56;41.00;98898.09;2083431;28;20183;-47
2023/09/08 01:57:35;;;;;;;3.80;2.70;;;;;;;25.52;41.11;98902.38;2082597;28;20048;-47
2023/09/08 01:58:37;;;;;;;3.50;3.15;;;;;;;25.52;41.16;98899.66;2084677;28;20238;-49
2023/09/08 01:59:38;;;;;;;3.35;3.05;;;;;;;25.52;41.05;98896.94;2081720;28;20064;-47
2023/09/08 02:00:39;;;;;;;3.38;2.70;;;;;;;25.45;41.61;98893.53;2082787;28;21804;-48
2023/09/08 02:01:41;;;;;;;4.00;2.80;;;;;;;25.52;41.43;98899.66;2079643;28;20049;-47
2023/09/08 02:02:42;;;;;;;2.97;2.63;;;;;;;25.54;41.40;98900.22;2091774;28;20067;-51
2023/09/08 02:03:43;;;;;;;3.10;2.58;;;;;;;25.48;41.25;98895.75;2094897;28;20050;-47
2023/09/08 02:04:44;;;;;;;4.25;2.60;;;;;;;25.54;41.56;98891.25;2095285;28;20055;-49
2023/09/08 02:05:46;;;;;;;3.63;3.28;;;;;;;25.51;41.01;98897.97;2092745;28;20148;-48
2023/09/08 02:06:47;;;;;;;4.80;2.95;;;;;;;25.51;41.20;98892.56;2092891;28;20516;-48
2023/09/08 02:07:49;;;;;;;3.63;2.78;;;;;;;25.46;41.56;98892.44;2093321;28;20134;-47
2023/09/08 02:08:51;;;;;;;5.55;4.25;;;;;;;25.46;41.66;98891.63;2093724;28;20060;-52
2023/09/08 02:09:51;;;;;;;3.33;3.03;;;;;;;25.51;41.50;98886.31;2092060;28;20060;-49
2023/09/08 02:10:53;;;;;;;3.97;2.97;;;;;;;25.43;41.68;98887.50;2093571;28;20611;-51
2023/09/08 02:11:55;;;;;;;4.72;2.47;;;;;;;25.36;42.13;98881.41;2086312;28;20052;-48
2023/09/08 02:12:57;;;;;;;4.07;3.35;;;;;;;25.41;41.80;98886.94;2092943;28;20708;-50
2023/09/08 02:13:58;;;;;;;3.13;2.65;;;;;;;25.43;41.90;98882.06;2093446;28;20059;-49
2023/09/08 02:15:00;;;;;;;3.83;3.28;;;;;;;25.48;41.82;98886.78;2093681;28;20048;-48
2023/09/08 02:16:01;;;;;;;3.60;3.08;;;;;;;25.44;41.47;98888.34;2094363;28;23068;-51
2023/09/08 02:17:03;;;;;;;3.83;3.30;;;;;;;25.35;42.00;98891.47;2096249;28;20055;-49
2023/09/08 02:18:06;;;;;;;9.52;3.10;;;;;;;25.44;41.85;98886.47;2092812;28;21227;-51
2023/09/08 02:19:07;;;;;;;4.50;2.80;;;;;;;25.41;42.09;98886.94;2094888;28;20048;-51
2023/09/08 02:20:10;;;;;;;4.95;2.75;;;;;;;25.41;41.94;98892.38;2093799;28;20048;-50
2023/09/08 02:21:12;;;;;;;2.67;2.47;;;;;;;25.44;41.64;98886.47;2094476;28;20565;-49
2023/09/08 02:22:13;;;;;;;5.20;3.15;;;;;;;25.41;41.62;98886.94;2093249;28;20044;-52
2023/09/08 02:23:15;;;;;;;3.17;2.90;;;;;;;25.40;42.01;98886.09;2093567;28;20054;-46
2023/09/08 02:24:16;;;;;;;3.58;3.28;;;;;;;25.33;41.76;98892.75;2093594;28;20052;-47
2023/09/08 02:25:18;;;;;;;4.32;2.58;;;;;;;25.40;41.93;98890.72;2091969;28;20480;-51
2023/09/08 02:26:19;;;;;;;3.15;2.85;;;;;;;25.38;41.72;98895.56;2092679;28;20131;-50
2023/09/08 02:27:22;;;;;;;6.30;3.83;;;;;;;25.30;42.32;98901.41;2093540;28;20044;-50
2023/09/08 02:28:23;;;;;;;5.57;2.85;;;;;;;25.25;41.90;98910.25;2088429;28;20041;-53
2023/09/08 02:29:25;;;;;;;2.92;2.72;;;;;;;25.22;42.29;98899.06;2090908;28;20078;-47
2023/09/08 02:30:26;;;;;;;4.32;3.03;;;;;;;25.23;42.19;98903.41;2093324;28;20058;-49
2023/09/08 02:31:28;;;;;;;5.13;2.75;;;;;;;25.22;42.53;98907.19;2091405;28;20086;-49
2023/09/08 02:32:29;;;;;;;6.30;3.17;;;;;;;25.18;42.25;98909.53;2093510;28;20052;-50
2023/09/08 02:33:31;;;;;;;3.33;2.80;;;;;;;25.17;42.69;98902.47;2092096;28;20040;-50
2023/09/08 02:34:36;;;;;;;3.00;2.75;;;;;;;25.15;42.34;98905.41;2092175;28;20045;-51
2023/09/08 02:35:39;;;;;;;4.20;2.75;;;;;;;25.13;42.88;98898.56;2093277;28;20060;-47
2023/09/08 02:36:40;;;;;;;3.50;3.20;;;;;;;25.12;42.83;98903.16;2091917;28;20059;-50
2023/09/08 02:37:42;;;;;;;3.78;2.72;;;;;;;25.14;42.19;98895.63;2094053;28;20048;-50
2023/09/08 02:38:43;;;;;;;3.85;3.10;;;;;;;25.08;42.44;98893.88;2093243;28;20044;-49
2023/09/08 02:39:45;;;;;;;3.65;2.72;;;;;;;25.09;42.61;98887.34;2093564;28;20087;-52
2023/09/08 02:40:45;;;;;;;3.08;2.75;;;;;;;25.13;42.47;98893.13;2093411;28;20075;-49
2023/09/08 02:41:47;;;;;;;4.28;3.05;;;;;;;25.14;42.61;98898.34;2091987;28;20056;-49
2023/09/08 02:42:50;;;;;;;3.08;2.78;;;;;;;25.09;42.48;98900.94;2092719;28;20975;-49
2023/09/08 02:43:50;;;;;;;7.22;3.00;;;;;;;25.10;42.30;98894.44;2092748;28;20040;-48
2023/09/08 02:44:53;;;;;;;5.00;3.33;;;;;;;25.09;42.75;98900.94;2094972;28;20469;-51
2023/09/08 02:45:53;;;;;;;3.75;3.15;;;;;;;25.13;42.19;98895.84;2093693;28;20528;-51
2023/09/08 02:46:55;;;;;;;4.68;3.83;;;;;;;25.10;42.29;98894.44;2094093;28;20048;-51
2023/09/08 02:47:56;;;;;;;2.85;2.65;;;;;;;25.07;42.73;98894.09;2095795;28;20052;-53
2023/09/08 02:48:58;;;;;;;9.05;3.35;;;;;;;25.12;42.46;98891.47;2094875;28;20043;-49
2023/09/08 02:49:59;;;;;;;3.63;2.80;;;;;;;25.16;42.21;98884.56;2097346;28;20048;-47
2023/09/08 02:51:01;;;;;;;7.25;3.03;;;;;;;25.08;42.72;98888.44;2091978;28;20135;-50
2023/09/08 02:52:02;;;;;;;4.32;3.45;;;;;;;25.06;42.57;98887.03;2088304;28;20496;-47
2023/09/08 02:53:04;;;;;;;3.42;3.13;;;;;;;25.06;42.49;98893.28;2093800;28;20064;-50
2023/09/08 02:54:05;;;;;;;3.78;2.83;;;;;;;25.03;42.70;98885.59;2097076;28;20573;-49
2023/09/08 02:55:06;;;;;;;3.50;3.03;;;;;;;25.06;42.47;98879.69;2093404;28;20464;-50
2023/09/08 02:56:09;;;;;;;3.22;2.92;;;;;;;25.12;42.23;98884.16;2093812;28;20109;-51
2023/09/08 02:57:10;;;;;;;3.30;3.00;;;;;;;25.10;42.54;98888.19;2093629;28;20457;-50
2023/09/08 02:58:13;;;;;;;4.50;3.28;;;;;;;25.15;42.33;98889.13;2095153;28;20048;-48
2023/09/08 02:59:14;;;;;;;9.38;3.17;;;;;;;25.10;42.72;98882.75;2094945;28;20417;-50
2023/09/08 03:00:15;;;;;;;4.80;3.22;;;;;;;25.07;42.51;98884.06;2093819;28;20040;-50
2023/09/08 03:01:20;;;;;;;4.90;3.28;;;;;;;25.05;42.76;98894.34;2096757;28;20060;-49
2023/09/08 03:02:20;;;;;;;3.20;2.90;;;;;;;25.05;42.89;98885.38;2094384;28;20068;-50
2023/09/08 03:03:22;;;;;;;3.83;3.30;;;;;;;25.02;43.09;98881.25;2093707;28;20055;-50
2023/09/08 03:04:23;;;;;;;4.57;3.17;;;;;;;24.98;43.02;98880.88;2095306;28;20390;-53
2023/09/08 03:05:25;;;;;;;4.53;2.60;;;;;;;25.05;42.85;98882.66;2097783;28;20051;-48
2023/09/08 03:06:26;;;;;;;4.10;3.70;;;;;;;25.19;42.86;98890.31;2091043;28;20068;-50
2023/09/08 03:07:28;;;;;;;6.45;3.17;;;;;;;25.15;42.46;98897.28;2095361;28;20637;-48
2023/09/08 03:08:29;;;;;;;4.75;3.25;;;;;;;25.11;43.05;98890.66;2094463;28;20453;-49
2023/09/08 03:09:31;;;;;;;3.90;3.15;;;;;;;25.09;43.04;98903.63;2096444;28;20079;-51
2023/09/08 03:10:34;;;;;;;3.20;2.90;;;;;;;25.13;42.61;98891.25;2097227;28;20053;-50
2023/09/08 03:11:37;;;;;;;3.55;2.67;;;;;;;25.16;42.77;98888.09;2089632;28;20043;-48
2023/09/08 03:12:38;;;;;;;4.35;2.83;;;;;;;25.16;42.88;98890.00;2091449;28;20051;-49
2023/09/08 03:13:41;;;;;;;4.03;2.88;;;;;;;25.13;42.47;98877.69;2093911;28;20050;-48
2023/09/08 03:14:42;;;;;;;4.78;4.28;;;;;;;25.07;43.03;98885.94;2094139;28;20043;-53
2023/09/08 03:15:44;;;;;;;3.85;3.45;;;;;;;25.06;42.65;98885.13;2093460;28;20125;-51
2023/09/08 03:16:44;;;;;;;4.68;3.35;;;;;;;25.08;43.10;98888.44;2093345;28;20055;-47
2023/09/08 03:17:46;;;;;;;3.88;2.88;;;;;;;25.15;43.00;98889.13;2096215;28;20761;-49
2023/09/08 03:18:47;;;;;;;3.42;2.88;;;;;;;25.14;42.61;98898.34;2095874;28;20059;-50
2023/09/08 03:19:49;;;;;;;5.38;3.47;;;;;;;25.14;42.68;98895.63;2094224;28;20079;-49
2023/09/08 03:20:50;;;;;;;3.72;3.38;;;;;;;25.16;42.66;98890.81;2094284;28;20051;-50
2023/09/08 03:21:52;;;;;;;4.18;3.17;;;;;;;25.17;42.82;98887.00;2094686;28;20893;-50
2023/09/08 03:22:53;;;;;;;3.25;2.95;;;;;;;25.11;42.71;98889.84;2094084;28;20150;-51
2023/09/08 03:23:55;;;;;;;4.63;2.78;;;;;;;25.11;42.80;98889.84;2096148;28;20609;-48
2023/09/08 03:24:56;;;;;;;7.95;3.22;;;;;;;25.08;42.73;98883.00;2096045;28;20045;-48
2023/09/08 03:25:58;;;;;;;3.25;2.95;;;;;;;25.06;42.99;98876.16;2094602;28;20046;-47
2023/09/08 03:26:59;;;;;;;3.17;2.92;;;;;;;25.11;42.49;98877.09;2094297;28;20052;-49
2023/09/08 03:28:00;;;;;;;4.75;2.92;;;;;;;25.23;42.63;98879.78;2094900;28;20087;-49
2023/09/08 03:29:03;;;;;;;3.10;2.80;;;;;;;25.22;42.66;98883.59;2093626;28;20052;-48
2023/09/08 03:30:06;;;;;;;5.55;3.13;;;;;;;25.29;42.15;98888.88;2089758;28;20046;-50
2023/09/08 03:31:07;;;;;;;4.13;3.42;;;;;;;25.23;42.38;98887.94;2092742;28;20499;-47
2023/09/08 03:32:09;;;;;;;3.55;2.97;;;;;;;25.22;42.41;98894.44;2095765;28;20133;-49
2023/09/08 03:33:10;;;;;;;4.43;2.95;;;;;;;25.21;42.38;98897.38;2097531;28;20048;-48
2023/09/08 03:34:12;;;;;;;4.00;2.72;;;;;;;25.24;42.28;98891.47;2091273;28;20119;-51
2023/09/08 03:35:13;;;;;;;6.00;3.40;;;;;;;25.24;42.28;98894.19;2093756;28;20399;-52
2023/09/08 03:36:15;;;;;;;3.70;3.33;;;;;;;25.15;42.91;98888.31;2095320;28;20051;-50
2023/09/08 03:37:17;;;;;;;4.72;2.90;;;;;;;25.08;42.88;98891.16;2093526;28;20044;-47
2023/09/08 03:38:18;;;;;;;3.15;2.80;;;;;;;25.07;43.00;98889.47;2095822;28;20052;-47
2023/09/08 03:39:20;;;;;;;6.07;2.90;;;;;;;25.11;42.92;98892.56;2094978;28;20054;-50
2023/09/08 03:40:21;;;;;;;3.53;2.65;;;;;;;25.09;42.80;98887.34;2094114;28;20047;-50
2023/09/08 03:41:23;;;;;;;7.25;3.40;;;;;;;25.15;42.77;98886.41;2096119;28;20047;-48
2023/09/08 03:42:24;;;;;;;3.75;3.03;;;;;;;25.09;42.45;98892.78;2093217;28;20055;-49
2023/09/08 03:43:25;;;;;;;5.13;3.03;;;;;;;25.10;42.64;98891.75;2093329;28;20131;-48
2023/09/08 03:44:28;;;;;;;5.75;2.95;;;;;;;25.09;42.98;98897.41;2094216;28;20048;-53
2023/09/08 03:45:30;;;;;;;5.22;3.15;;;;;;;25.15;42.37;98894.56;2094267;28;24141;-47
2023/09/08 03:46:30;;;;;;;3.75;3.03;;;;;;;25.14;42.74;98892.94;2094830;28;20052;-47
2023/09/08 03:47:32;;;;;;;5.05;3.50;;;;;;;25.18;42.79;98891.41;2095519;28;20052;-49
2023/09/08 03:48:33;;;;;;;3.33;2.90;;;;;;;25.21;42.68;98886.53;2093057;28;20044;-53
2023/09/08 03:49:35;;;;;;;3.90;2.80;;;;;;;25.22;42.79;98893.63;2095807;28;20508;-48
2023/09/08 03:50:36;;;;;;;6.97;3.13;;;;;;;25.21;42.60;98881.09;2094909;28;20079;-49
2023/09/08 03:51:38;;;;;;;7.25;3.25;;;;;;;25.14;42.83;98878.50;2096588;28;20139;-47
2023/09/08 03:52:39;;;;;;;3.78;2.95;;;;;;;25.13;42.48;98880.41;2093092;28;20044;-49
2023/09/08 03:53:40;;;;;;;5.60;3.63;;;;;;;25.07;42.61;98877.81;2092961;28;20094;-50
2023/09/08 03:54:41;;;;;;;5.38;3.78;;;;;;;25.03;42.82;98874.75;2093599;28;20044;-53
2023/09/08 03:55:43;;;;;;;4.82;2.60;;;;;;;25.07;42.89;98884.06;2095961;28;20062;-48
2023/09/08 03:56:44;;;;;;;4.93;3.47;;;;;;;25.11;42.54;98882.53;2094104;28;20063;-49
2023/09/08 03:57:45;;;;;;;4.72;2.60;;;;;;;25.03;43.17;98879.38;2096042;28;20056;-50
2023/09/08 03:58:47;;;;;;;7.00;3.05;;;;;;;25.03;42.86;98879.38;2096414;28;20051;-50
2023/09/08 03:59:49;;;;;;;4.32;3.33;;;;;;;25.01;43.22;98882.31;2096086;28;20055;-51
2023/09/08 04:00:51;;;;;;;3.53;2.88;;;;;;;25.04;43.22;98884.53;2094663;28;20328;-48
2023/09/08 04:01:52;;;;;;;4.40;3.53;;;;;;;25.13;42.49;98885.84;2090079;28;20060;-49
2023/09/08 04:02:54;;;;;;;3.78;3.17;;;;;;;25.08;42.74;98874.88;2082949;28;20083;-47
2023/09/08 04:03:55;;;;;;;3.78;2.88;;;;;;;25.07;42.96;98872.38;2085178;28;21131;-47
2023/09/08 04:04:56;;;;;;;4.07;2.60;;;;;;;25.04;42.88;98870.97;2089445;28;20044;-47
2023/09/08 04:05:57;;;;;;;4.85;2.80;;;;;;;25.16;42.79;98866.38;2093090;28;20053;-50
2023/09/08 04:06:59;;;;;;;3.17;2.88;;;;;;;25.18;42.70;98866.13;2092980;28;20056;-49
2023/09/08 04:08:01;;;;;;;4.10;3.28;;;;;;;25.19;42.84;98862.34;2092268;28;20052;-50
2023/09/08 04:09:03;;;;;;;3.08;2.47;;;;;;;25.10;42.73;98864.59;2092825;28;20183;-49
2023/09/08 04:10:05;;;;;;;2.95;2.53;;;;;;;25.11;42.92;98866.25;2095862;28;20049;-47
2023/09/08 04:11:06;;;;;;;3.20;2.75;;;;;;;25.22;42.41;98869.19;2091941;28;20056;-50
2023/09/08 04:12:09;;;;;;;5.53;3.20;;;;;;;25.19;42.79;98863.19;2092936;28;20059;-49
2023/09/08 04:13:10;;;;;;;4.95;2.80;;;;;;;25.25;42.41;98869.53;2094997;28;20541;-48
2023/09/08 04:14:11;;;;;;;5.38;3.03;;;;;;;25.27;42.70;98871.97;2091504;28;20059;-50
2023/09/08 04:15:15;;;;;;;3.25;2.85;;;;;;;25.31;42.19;98868.56;2093798;28;20127;-52
2023/09/08 04:16:16;;;;;;;5.90;2.83;;;;;;;25.17;42.44;98869.91;2091914;28;20134;-47
2023/09/08 04:17:18;;;;;;;7.65;3.00;;;;;;;25.14;42.67;98873.94;2093050;28;20505;-52
2023/09/08 04:18:20;;;;;;;4.07;3.58;;;;;;;25.17;42.83;98865.28;2092617;28;20051;-49
2023/09/08 04:19:20;;;;;;;6.50;3.13;;;;;;;25.13;42.87;98869.53;2092126;28;20063;-49
2023/09/08 04:20:22;;;;;;;5.97;2.90;;;;;;;25.16;42.96;98871.81;2091741;28;20071;-50
2023/09/08 04:21:23;;;;;;;3.85;3.40;;;;;;;25.11;43.10;98870.84;2093771;28;20143;-51
2023/09/08 04:22:25;;;;;;;3.70;2.50;;;;;;;25.11;43.01;98868.13;2091741;28;20406;-48
2023/09/08 04:23:26;;;;;;;4.72;3.22;;;;;;;25.08;43.10;98874.88;2093103;28;20118;-49
2023/09/08 04:24:28;;;;;;;3.75;2.88;;;;;;;25.12;42.89;98872.47;2093137;28;20048;-48
2023/09/08 04:25:28;;;;;;;5.38;2.92;;;;;;;25.22;42.46;98871.91;2091587;28;20048;-49
2023/09/08 04:26:31;;;;;;;3.50;3.20;;;;;;;25.23;42.41;98868.94;2093277;28;20135;-50
2023/09/08 04:27:32;;;;;;;3.33;2.80;;;;;;;25.10;42.82;98875.47;2091899;28;20056;-49
2023/09/08 04:28:34;;;;;;;4.15;2.85;;;;;;;25.17;42.50;98870.72;2091606;28;20135;-47
2023/09/08 04:29:35;;;;;;;4.13;2.65;;;;;;;25.25;42.70;98871.44;2093497;28;20082;-47
2023/09/08 04:30:38;;;;;;;5.50;3.00;;;;;;;25.28;42.79;98877.19;2091600;28;20497;-51
2023/09/08 04:31:39;;;;;;;5.32;3.03;;;;;;;25.24;42.81;98876.03;2092817;28;20532;-47
2023/09/08 04:32:41;;;;;;;4.57;3.10;;;;;;;25.26;42.76;98878.50;2089388;28;20151;-48
2023/09/08 04:33:42;;;;;;;4.10;3.28;;;;;;;25.30;42.29;98875.06;2095205;28;20386;-51
2023/09/08 04:34:44;;;;;;;4.68;2.92;;;;;;;25.18;42.81;98871.53;2095951;28;20139;-47
2023/09/08 04:35:45;;;;;;;6.90;3.22;;;;;;;25.11;42.57;98877.09;2094252;28;20048;-47
2023/09/08 04:36:47;;;;;;;3.92;2.95;;;;;;;25.24;42.47;98869.75;2088195;28;20052;-51
2023/09/08 04:37:48;;;;;;;4.97;3.50;;;;;;;25.22;42.38;98880.06;2092032;28;20059;-52
2023/09/08 04:38:48;;;;;;;3.65;2.80;;;;;;;25.28;42.31;98868.22;2096063;28;20081;-47
2023/09/08 04:39:50;;;;;;;4.80;2.72;;;;;;;25.30;42.67;98869.63;2094400;28;20783;-47
2023/09/08 04:40:51;;;;;;;5.28;3.63;;;;;;;25.34;42.43;98876.22;2093200;28;20735;-51
2023/09/08 04:41:53;;;;;;;4.28;3.50;;;;;;;25.25;42.77;98874.13;2092556;28;20135;-50
2023/09/08 04:42:54;;;;;;;4.18;3.20;;;;;;;25.17;42.47;98876.16;2094793;28;20057;-49
2023/09/08 04:43:55;;;;;;;3.90;3.13;;;;;;;25.14;42.75;98878.50;2093088;28;20771;-47
2023/09/08 04:44:57;;;;;;;6.10;3.40;;;;;;;25.24;42.40;98881.47;2095081;28;20051;-47
2023/09/08 04:45:59;;;;;;;4.75;3.55;;;;;;;25.25;42.69;98879.56;2092065;28;20044;-50
2023/09/08 04:47:01;;;;;;;9.70;3.45;;;;;;;25.26;42.39;98879.31;2093612;28;20053;-47
2023/09/08 04:48:02;;;;;;;4.88;2.67;;;;;;;25.31;42.68;98882.13;2094961;28;20048;-47
2023/09/08 04:49:03;;;;;;;6.20;4.85;;;;;;;25.30;42.27;98885.09;2094267;28;20040;-47
2023/09/08 04:50:05;;;;;;;3.97;2.97;;;;;;;25.23;42.86;98889.84;2095033;28;20043;-48
2023/09/08 04:51:07;;;;;;;5.70;3.22;;;;;;;25.25;42.56;98890.44;2097383;28;20812;-48
2023/09/08 04:52:08;;;;;;;6.20;2.70;;;;;;;25.18;42.45;98895.97;2092563;28;20051;-47